createdAt,value
2018-04-18T00:00:43.943Z,0.00
2018-04-18T00:01:43.976Z,0.00
2018-04-18T00:02:44.008Z,0.00
2018-04-18T00:03:44.040Z,0.00
2018-04-18T00:04:44.076Z,0.00
2018-04-18T00:05:44.110Z,0.00
2018-04-18T00:06:44.136Z,0.00
2018-04-18T00:07:44.169Z,0.00
2018-04-18T00:08:44.202Z,0.00
2018-04-18T00:09:44.235Z,0.00
2018-04-18T00:10:44.267Z,0.00
2018-04-18T00:11:44.299Z,0.00
2018-04-18T00:12:44.331Z,0.00
2018-04-18T00:13:44.364Z,0.00
2018-04-18T00:14:44.396Z,0.00
2018-04-18T00:15:44.429Z,0.00
2018-04-18T00:16:44.468Z,0.00
2018-04-18T00:17:44.492Z,0.00
2018-04-18T00:18:44.525Z,0.00
2018-04-18T00:19:44.564Z,0.00
2018-04-18T00:20:44.589Z,0.00
2018-04-18T00:21:44.620Z,0.00
2018-04-18T00:22:44.652Z,0.00
2018-04-18T00:23:44.686Z,0.00
2018-04-18T00:24:44.717Z,0.00
2018-04-18T00:25:44.749Z,0.00
2018-04-18T00:26:44.782Z,0.00
2018-04-18T00:27:44.813Z,0.00
2018-04-18T00:28:44.845Z,0.00
2018-04-18T00:29:44.877Z,0.00
2018-04-18T00:30:44.911Z,0.00
2018-04-18T00:31:44.943Z,0.00
2018-04-18T00:32:44.974Z,0.00
2018-04-18T00:33:45.007Z,0.00
2018-04-18T00:34:45.042Z,0.00
2018-04-18T00:35:45.069Z,0.00
2018-04-18T00:36:45.102Z,0.00
2018-04-18T00:37:45.136Z,0.00
2018-04-18T00:38:45.165Z,0.00
2018-04-18T00:39:45.198Z,0.00
2018-04-18T00:40:45.231Z,0.00
2018-04-18T00:41:45.264Z,0.00
2018-04-18T00:42:45.294Z,0.00
2018-04-18T00:43:45.326Z,0.00
2018-04-18T00:44:45.371Z,0.00
2018-04-18T00:45:45.390Z,0.00
2018-04-18T00:46:45.421Z,0.00
2018-04-18T00:47:45.454Z,0.00
2018-04-18T00:48:45.486Z,0.00
2018-04-18T00:49:45.519Z,0.00
2018-04-18T00:50:45.549Z,0.00
2018-04-18T00:51:45.582Z,0.00
2018-04-18T00:52:45.614Z,0.00
2018-04-18T00:53:45.646Z,0.00
2018-04-18T00:54:45.678Z,0.00
2018-04-18T00:55:45.712Z,0.00
2018-04-18T00:56:45.746Z,0.00
2018-04-18T00:57:45.774Z,0.00
2018-04-18T00:58:45.806Z,0.00
2018-04-18T00:59:45.842Z,0.00
2018-04-18T01:00:45.872Z,0.00
2018-04-18T01:01:45.902Z,0.00
2018-04-18T01:02:45.932Z,0.00
2018-04-18T01:03:45.965Z,0.00
2018-04-18T01:04:46.045Z,0.00
2018-04-18T01:05:46.029Z,0.00
2018-04-18T01:06:46.059Z,0.00
2018-04-18T01:07:46.092Z,0.00
2018-04-18T01:08:46.125Z,0.00
2018-04-18T01:09:46.155Z,0.00
2018-04-18T01:10:46.186Z,0.00
2018-04-18T01:11:46.219Z,0.00
2018-04-18T01:12:46.251Z,0.00
2018-04-18T01:13:46.283Z,0.00
2018-04-18T01:14:46.313Z,0.00
2018-04-18T01:15:46.347Z,0.00
2018-04-18T01:16:46.379Z,0.00
2018-04-18T01:17:46.413Z,0.00
2018-04-18T01:18:46.441Z,0.00
2018-04-18T01:19:46.472Z,0.00
2018-04-18T01:20:46.505Z,0.00
2018-04-18T01:21:46.537Z,0.00
2018-04-18T01:22:46.572Z,0.00
2018-04-18T01:23:46.600Z,0.00
2018-04-18T01:24:46.632Z,0.00
2018-04-18T01:25:46.663Z,0.00
2018-04-18T01:26:46.695Z,0.00
2018-04-18T01:27:46.727Z,0.00
2018-04-18T01:28:46.758Z,0.00
2018-04-18T01:29:46.791Z,0.00
2018-04-18T01:30:46.822Z,0.00
2018-04-18T01:31:46.854Z,0.00
2018-04-18T01:32:46.889Z,0.00
2018-04-18T01:33:46.920Z,0.00
2018-04-18T01:34:46.948Z,0.00
2018-04-18T01:35:46.980Z,0.00
2018-04-18T01:36:47.012Z,0.00
2018-04-18T01:37:47.044Z,0.00
2018-04-18T01:38:47.075Z,0.00
2018-04-18T01:39:47.106Z,0.00
2018-04-18T01:40:47.138Z,0.00
2018-04-18T01:41:47.170Z,0.00
2018-04-18T01:42:47.200Z,0.00
2018-04-18T01:43:47.233Z,0.00
2018-04-18T01:44:47.276Z,0.00
2018-04-18T01:45:47.297Z,0.00
2018-04-18T01:46:47.327Z,0.00
2018-04-18T01:47:47.359Z,0.00
2018-04-18T01:48:47.391Z,0.00
2018-04-18T01:49:47.423Z,0.00
2018-04-18T01:50:47.454Z,0.00
2018-04-18T01:51:47.486Z,0.00
2018-04-18T01:52:47.518Z,0.00
2018-04-18T01:53:47.550Z,0.00
2018-04-18T01:54:47.580Z,0.00
2018-04-18T01:55:47.612Z,0.00
2018-04-18T01:56:47.647Z,0.00
2018-04-18T01:57:47.676Z,0.00
2018-04-18T01:58:47.715Z,0.00
2018-04-18T01:59:47.739Z,0.00
2018-04-18T02:00:47.771Z,0.00
2018-04-18T02:01:47.803Z,0.00
2018-04-18T02:02:47.833Z,0.00
2018-04-18T02:03:47.865Z,0.00
2018-04-18T02:04:47.898Z,0.00
2018-04-18T02:05:47.929Z,0.00
2018-04-18T02:06:47.962Z,0.00
2018-04-18T02:07:47.992Z,0.00
2018-04-18T02:08:48.023Z,0.00
2018-04-18T02:09:48.056Z,0.00
2018-04-18T02:10:48.085Z,0.00
2018-04-18T02:11:48.118Z,0.00
2018-04-18T02:12:48.151Z,0.00
2018-04-18T02:13:48.180Z,0.00
2018-04-18T02:14:48.212Z,0.00
2018-04-18T02:15:48.243Z,0.00
2018-04-18T02:16:48.275Z,0.00
2018-04-18T02:17:48.306Z,0.00
2018-04-18T02:18:48.338Z,0.00
2018-04-18T02:19:48.370Z,0.00
2018-04-18T02:20:48.402Z,0.00
2018-04-18T02:21:48.434Z,0.00
2018-04-18T02:22:48.465Z,0.00
2018-04-18T02:23:48.496Z,0.00
2018-04-18T02:24:48.529Z,0.00
2018-04-18T02:25:48.560Z,0.00
2018-04-18T02:26:48.591Z,0.00
2018-04-18T02:27:48.623Z,0.00
2018-04-18T02:28:48.654Z,0.00
2018-04-18T02:29:48.686Z,0.00
2018-04-18T02:30:48.718Z,0.00
2018-04-18T02:31:48.751Z,0.00
2018-04-18T02:32:48.780Z,0.00
2018-04-18T02:33:48.812Z,0.00
2018-04-18T02:34:48.843Z,0.00
2018-04-18T02:35:48.874Z,0.00
2018-04-18T02:36:48.906Z,0.00
2018-04-18T02:37:48.938Z,0.00
2018-04-18T02:38:48.968Z,0.00
2018-04-18T02:39:49.002Z,0.00
2018-04-18T02:40:49.036Z,0.00
2018-04-18T02:41:49.063Z,0.00
2018-04-18T02:42:49.093Z,0.00
2018-04-18T02:43:49.124Z,0.00
2018-04-18T02:44:49.177Z,0.00
2018-04-18T02:45:49.189Z,0.00
2018-04-18T02:46:49.222Z,0.00
2018-04-18T02:47:56.828Z,0.00
2018-04-18T02:48:49.282Z,0.00
2018-04-18T02:49:49.313Z,0.00
2018-04-18T02:50:49.343Z,0.00
2018-04-18T02:51:49.375Z,0.00
2018-04-18T02:52:49.408Z,0.00
2018-04-18T02:53:49.437Z,0.00
2018-04-18T02:54:49.469Z,0.00
2018-04-18T02:55:49.500Z,0.00
2018-04-18T02:56:49.531Z,0.00
2018-04-18T02:57:49.563Z,0.00
2018-04-18T02:58:49.593Z,0.00
2018-04-18T02:59:49.624Z,0.00
2018-04-18T03:00:49.657Z,0.00
2018-04-18T03:01:49.689Z,0.00
2018-04-18T03:02:49.719Z,0.00
2018-04-18T03:03:49.751Z,0.00
2018-04-18T03:04:49.783Z,0.00
2018-04-18T03:05:49.815Z,0.00
2018-04-18T03:06:49.843Z,0.00
2018-04-18T03:07:49.875Z,0.00
2018-04-18T03:08:49.907Z,0.00
2018-04-18T03:09:49.940Z,0.00
2018-04-18T03:10:49.969Z,0.00
2018-04-18T03:11:50.001Z,0.00
2018-04-18T03:12:50.031Z,0.00
2018-04-18T03:13:50.064Z,0.00
2018-04-18T03:14:50.094Z,0.00
2018-04-18T03:15:50.126Z,0.00
2018-04-18T03:16:50.157Z,0.00
2018-04-18T03:17:50.189Z,0.00
2018-04-18T03:18:50.219Z,0.00
2018-04-18T03:19:50.252Z,0.00
2018-04-18T03:20:50.284Z,0.00
2018-04-18T03:21:50.314Z,0.00
2018-04-18T03:22:50.344Z,0.00
2018-04-18T03:23:50.375Z,0.00
2018-04-18T03:24:50.408Z,0.00
2018-04-18T03:25:50.438Z,0.00
2018-04-18T03:26:50.470Z,0.00
2018-04-18T03:27:50.502Z,0.00
2018-04-18T03:28:50.532Z,0.00
2018-04-18T03:29:50.564Z,0.00
2018-04-18T03:30:50.595Z,0.00
2018-04-18T03:31:50.626Z,0.00
2018-04-18T03:32:50.666Z,0.00
2018-04-18T03:33:50.690Z,0.00
2018-04-18T03:34:50.720Z,0.00
2018-04-18T03:35:50.795Z,0.00
2018-04-18T03:36:50.783Z,0.00
2018-04-18T03:37:50.814Z,0.00
2018-04-18T03:38:50.844Z,0.00
2018-04-18T03:39:50.876Z,0.00
2018-04-18T03:40:50.924Z,0.00
2018-04-18T03:41:50.939Z,0.00
2018-04-18T03:42:50.968Z,0.00
2018-04-18T03:43:50.999Z,0.00
2018-04-18T03:44:51.031Z,0.00
2018-04-18T03:45:51.061Z,0.00
2018-04-18T03:46:51.093Z,0.00
2018-04-18T03:47:51.123Z,0.00
2018-04-18T03:48:51.157Z,0.00
2018-04-18T03:49:51.185Z,0.00
2018-04-18T03:50:51.216Z,0.00
2018-04-18T03:51:51.248Z,0.00
2018-04-18T03:52:51.286Z,0.00
2018-04-18T03:53:51.309Z,0.00
2018-04-18T03:54:51.340Z,0.00
2018-04-18T03:55:51.373Z,0.00
2018-04-18T03:56:51.403Z,0.00
2018-04-18T03:57:51.434Z,0.00
2018-04-18T03:58:51.463Z,0.00
2018-04-18T03:59:51.495Z,0.00
2018-04-18T04:00:51.527Z,0.00
2018-04-18T04:01:51.557Z,0.00
2018-04-18T04:02:51.588Z,0.00
2018-04-18T04:03:51.619Z,0.00
2018-04-18T04:04:51.650Z,0.00
2018-04-18T04:05:51.686Z,0.00
2018-04-18T04:06:51.719Z,0.00
2018-04-18T04:07:51.743Z,0.00
2018-04-18T04:08:51.775Z,0.00
2018-04-18T04:09:51.807Z,0.00
2018-04-18T04:10:51.836Z,0.00
2018-04-18T04:11:51.869Z,0.00
2018-04-18T04:12:51.897Z,0.00
2018-04-18T04:13:51.931Z,0.00
2018-04-18T04:14:51.959Z,0.00
2018-04-18T04:15:51.992Z,0.00
2018-04-18T04:16:52.021Z,0.00
2018-04-18T04:17:52.052Z,0.00
2018-04-18T04:18:52.082Z,0.00
2018-04-18T04:19:52.114Z,0.00
2018-04-18T04:20:52.145Z,0.00
2018-04-18T04:21:52.176Z,0.00
2018-04-18T04:22:52.207Z,0.00
2018-04-18T04:23:52.238Z,0.00
2018-04-18T04:24:52.289Z,0.00
2018-04-18T04:25:52.299Z,0.00
2018-04-18T04:26:52.330Z,0.00
2018-04-18T04:27:52.361Z,5.63
2018-04-18T04:28:52.392Z,5.63
2018-04-18T04:29:52.423Z,5.63
2018-04-18T04:30:52.455Z,5.63
2018-04-18T04:31:52.484Z,5.63
2018-04-18T04:32:52.515Z,5.63
2018-04-18T04:33:52.547Z,5.63
2018-04-18T04:34:52.578Z,5.63
2018-04-18T04:35:52.607Z,11.25
2018-04-18T04:36:52.638Z,11.25
2018-04-18T04:37:52.671Z,11.25
2018-04-18T04:38:52.701Z,11.25
2018-04-18T04:39:52.731Z,11.25
2018-04-18T04:40:52.762Z,16.88
2018-04-18T04:41:52.794Z,16.88
2018-04-18T04:42:52.825Z,16.88
2018-04-18T04:43:52.855Z,16.88
2018-04-18T04:44:52.921Z,22.50
2018-04-18T04:45:52.918Z,22.50
2018-04-18T04:46:52.948Z,22.50
2018-04-18T04:47:52.979Z,22.50
2018-04-18T04:48:53.010Z,28.13
2018-04-18T04:49:53.043Z,28.13
2018-04-18T04:50:53.071Z,28.13
2018-04-18T04:51:53.106Z,28.13
2018-04-18T04:52:53.132Z,33.75
2018-04-18T04:53:53.165Z,33.75
2018-04-18T04:54:53.194Z,33.75
2018-04-18T04:55:53.227Z,33.75
2018-04-18T04:56:53.257Z,39.38
2018-04-18T04:57:53.289Z,39.38
2018-04-18T04:58:53.318Z,39.38
2018-04-18T04:59:53.349Z,45.00
2018-04-18T05:00:53.381Z,45.00
2018-04-18T05:01:53.412Z,45.00
2018-04-18T05:02:53.441Z,45.00
2018-04-18T05:03:53.473Z,50.63
2018-04-18T05:04:53.503Z,50.63
2018-04-18T05:05:53.535Z,50.63
2018-04-18T05:06:53.566Z,56.25
2018-04-18T05:07:53.596Z,56.25
2018-04-18T05:08:53.626Z,56.25
2018-04-18T05:09:53.659Z,61.88
2018-04-18T05:10:53.691Z,61.88
2018-04-18T05:11:53.722Z,61.88
2018-04-18T05:12:53.751Z,61.88
2018-04-18T05:13:53.783Z,67.50
2018-04-18T05:14:53.813Z,67.50
2018-04-18T05:15:53.845Z,67.50
2018-04-18T05:16:53.875Z,73.13
2018-04-18T05:17:53.908Z,73.13
2018-04-18T05:18:53.939Z,73.13
2018-04-18T05:19:53.969Z,73.13
2018-04-18T05:20:54.003Z,78.75
2018-04-18T05:21:54.035Z,78.75
2018-04-18T05:22:54.064Z,78.75
2018-04-18T05:23:54.097Z,84.38
2018-04-18T05:24:54.124Z,84.38
2018-04-18T05:25:54.155Z,78.75
2018-04-18T05:26:54.187Z,84.38
2018-04-18T05:27:54.223Z,90.00
2018-04-18T05:28:54.250Z,90.00
2018-04-18T05:29:54.281Z,95.63
2018-04-18T05:30:54.347Z,95.63
2018-04-18T05:31:54.343Z,101.25
2018-04-18T05:32:54.374Z,101.25
2018-04-18T05:33:54.407Z,101.25
2018-04-18T05:34:54.438Z,106.88
2018-04-18T05:35:54.469Z,106.88
2018-04-18T05:36:54.500Z,106.88
2018-04-18T05:37:54.533Z,106.88
2018-04-18T05:38:54.563Z,112.50
2018-04-18T05:39:54.594Z,112.50
2018-04-18T05:40:54.626Z,112.50
2018-04-18T05:41:54.658Z,112.50
2018-04-18T05:42:54.689Z,118.13
2018-04-18T05:43:54.721Z,118.13
2018-04-18T05:44:54.753Z,118.13
2018-04-18T05:45:54.785Z,118.13
2018-04-18T05:46:54.815Z,123.75
2018-04-18T05:47:54.846Z,123.75
2018-04-18T05:48:54.880Z,123.75
2018-04-18T05:49:54.911Z,123.75
2018-04-18T05:50:54.946Z,123.75
2018-04-18T05:51:54.975Z,129.38
2018-04-18T05:52:55.006Z,129.38
2018-04-18T05:53:55.039Z,129.38
2018-04-18T05:54:55.069Z,129.38
2018-04-18T05:55:55.101Z,135.00
2018-04-18T05:56:55.135Z,135.00
2018-04-18T05:57:55.167Z,135.00
2018-04-18T05:58:55.197Z,135.00
2018-04-18T05:59:55.230Z,135.00
2018-04-18T06:00:55.262Z,140.63
2018-04-18T06:01:55.297Z,140.63
2018-04-18T06:02:55.328Z,140.63
2018-04-18T06:03:55.359Z,140.63
2018-04-18T06:04:55.391Z,140.63
2018-04-18T06:05:55.428Z,146.25
2018-04-18T06:06:55.456Z,146.25
2018-04-18T06:07:55.487Z,146.25
2018-04-18T06:08:55.524Z,146.25
2018-04-18T06:09:55.553Z,146.25
2018-04-18T06:10:55.586Z,146.25
2018-04-18T06:11:55.620Z,146.25
2018-04-18T06:12:55.653Z,146.25
2018-04-18T06:13:55.684Z,146.25
2018-04-18T06:14:55.715Z,146.25
2018-04-18T06:15:55.749Z,151.88
2018-04-18T06:16:55.782Z,151.88
2018-04-18T06:17:55.814Z,151.88
2018-04-18T06:18:55.848Z,151.88
2018-04-18T06:19:55.880Z,151.88
2018-04-18T06:20:55.914Z,151.88
2018-04-18T06:21:55.948Z,157.50
2018-04-18T06:22:55.981Z,157.50
2018-04-18T06:23:56.015Z,157.50
2018-04-18T06:24:56.046Z,157.50
2018-04-18T06:25:56.078Z,157.50
2018-04-18T06:26:56.110Z,163.13
2018-04-18T06:27:56.144Z,163.13
2018-04-18T06:28:56.177Z,163.13
2018-04-18T06:29:56.210Z,163.13
2018-04-18T06:30:56.243Z,163.13
2018-04-18T06:31:56.277Z,168.75
2018-04-18T06:32:56.310Z,168.75
2018-04-18T06:33:56.344Z,168.75
2018-04-18T06:34:56.378Z,168.75
2018-04-18T06:35:56.410Z,168.75
2018-04-18T06:36:56.447Z,168.75
2018-04-18T06:37:56.478Z,174.38
2018-04-18T06:38:56.512Z,174.38
2018-04-18T06:39:56.547Z,180.00
2018-04-18T06:40:56.579Z,180.00
2018-04-18T06:41:56.613Z,180.00
2018-04-18T06:42:56.660Z,180.00
2018-04-18T06:43:56.681Z,180.00
2018-04-18T06:44:56.715Z,185.63
2018-04-18T06:45:56.807Z,185.63
2018-04-18T06:46:56.781Z,185.63
2018-04-18T06:47:56.816Z,185.63
2018-04-18T06:48:56.850Z,191.25
2018-04-18T06:49:56.884Z,191.25
2018-04-18T06:50:56.918Z,191.25
2018-04-18T06:51:56.952Z,191.25
2018-04-18T06:52:56.988Z,196.88
2018-04-18T06:53:57.024Z,196.88
2018-04-18T06:54:57.056Z,196.88
2018-04-18T06:55:57.092Z,196.88
2018-04-18T06:56:57.126Z,202.50
2018-04-18T06:57:57.160Z,202.50
2018-04-18T06:58:57.194Z,202.50
2018-04-18T06:59:57.231Z,202.50
2018-04-18T07:00:57.265Z,208.13
2018-04-18T07:01:57.301Z,208.13
2018-04-18T07:02:57.335Z,208.13
2018-04-18T07:03:57.369Z,213.75
2018-04-18T07:04:57.404Z,213.75
2018-04-18T07:05:57.441Z,213.75
2018-04-18T07:06:57.474Z,213.75
2018-04-18T07:07:57.514Z,219.38
2018-04-18T07:08:57.574Z,219.38
2018-04-18T07:09:57.620Z,219.38
2018-04-18T07:10:57.640Z,225.00
2018-04-18T07:11:57.686Z,225.00
2018-04-18T07:12:57.688Z,225.00
2018-04-18T07:13:57.757Z,225.00
2018-04-18T07:14:57.759Z,225.00
2018-04-18T07:15:57.795Z,230.63
2018-04-18T07:16:57.831Z,230.63
2018-04-18T07:17:57.866Z,230.63
2018-04-18T07:18:57.903Z,230.63
2018-04-18T07:19:57.938Z,230.63
2018-04-18T07:20:57.974Z,230.63
2018-04-18T07:21:58.012Z,230.63
2018-04-18T07:22:58.047Z,230.63
2018-04-18T07:23:58.083Z,230.63
2018-04-18T07:24:58.120Z,236.25
2018-04-18T07:25:58.157Z,236.25
2018-04-18T07:26:58.192Z,236.25
2018-04-18T07:27:58.229Z,236.25
2018-04-18T07:28:58.269Z,236.25
2018-04-18T07:29:58.302Z,241.88
2018-04-18T07:30:58.339Z,241.88
2018-04-18T07:31:58.374Z,241.88
2018-04-18T07:32:58.413Z,241.88
2018-04-18T07:33:58.449Z,241.88
2018-04-18T07:34:58.485Z,247.50
2018-04-18T07:35:58.522Z,253.13
2018-04-18T07:36:58.560Z,258.75
2018-04-18T07:37:58.597Z,258.75
2018-04-18T07:38:58.633Z,258.75
2018-04-18T07:39:58.670Z,264.38
2018-04-18T07:40:58.706Z,258.75
2018-04-18T07:41:58.743Z,264.38
2018-04-18T07:42:58.780Z,270.00
2018-04-18T07:43:58.816Z,270.00
2018-04-18T07:44:58.855Z,275.63
2018-04-18T07:45:58.891Z,270.00
2018-04-18T07:46:58.929Z,275.63
2018-04-18T07:47:58.969Z,275.63
2018-04-18T07:48:59.004Z,281.25
2018-04-18T07:49:59.041Z,281.25
2018-04-18T07:50:59.082Z,286.88
2018-04-18T07:51:59.115Z,286.88
2018-04-18T07:52:59.156Z,286.88
2018-04-18T07:53:59.189Z,281.25
2018-04-18T07:54:59.262Z,292.50
2018-04-18T07:55:59.264Z,292.50
2018-04-18T07:56:59.302Z,292.50
2018-04-18T07:57:59.340Z,292.50
2018-04-18T07:58:59.377Z,292.50
2018-04-18T07:59:59.415Z,298.13
2018-04-18T08:00:59.452Z,292.50
2018-04-18T08:01:59.511Z,292.50
2018-04-18T08:02:59.526Z,298.13
2018-04-18T08:03:59.564Z,298.13
2018-04-18T08:04:59.602Z,298.13
2018-04-18T08:05:59.641Z,303.75
2018-04-18T08:06:59.679Z,303.75
2018-04-18T08:07:59.716Z,303.75
2018-04-18T08:08:59.755Z,309.38
2018-04-18T08:09:59.792Z,309.38
2018-04-18T08:10:59.830Z,315.00
2018-04-18T08:11:59.867Z,320.63
2018-04-18T08:12:59.907Z,320.63
2018-04-18T08:13:59.946Z,331.88
2018-04-18T08:14:59.982Z,326.25
2018-04-18T08:16:00.022Z,326.25
2018-04-18T08:17:00.061Z,331.88
2018-04-18T08:18:00.098Z,331.88
2018-04-18T08:19:00.137Z,320.63
2018-04-18T08:20:00.174Z,320.63
2018-04-18T08:21:00.218Z,331.88
2018-04-18T08:22:00.252Z,337.50
2018-04-18T08:23:00.298Z,337.50
2018-04-18T08:24:00.328Z,337.50
2018-04-18T08:25:00.367Z,343.13
2018-04-18T08:26:00.405Z,348.75
2018-04-18T08:27:00.445Z,348.75
2018-04-18T08:28:00.483Z,348.75
2018-04-18T08:29:00.526Z,354.38
2018-04-18T08:30:00.585Z,360.00
2018-04-18T08:31:00.599Z,360.00
2018-04-18T08:32:00.639Z,360.00
2018-04-18T08:33:00.681Z,360.00
2018-04-18T08:34:00.802Z,360.00
2018-04-18T08:35:00.756Z,360.00
2018-04-18T08:36:00.800Z,365.63
2018-04-18T08:37:00.839Z,360.00
2018-04-18T08:38:00.873Z,371.25
2018-04-18T08:39:00.913Z,371.25
2018-04-18T08:40:00.952Z,371.25
2018-04-18T08:41:00.991Z,376.88
2018-04-18T08:42:01.031Z,382.50
2018-04-18T08:43:01.084Z,388.13
2018-04-18T08:44:01.112Z,388.13
2018-04-18T08:45:01.169Z,376.88
2018-04-18T08:46:01.206Z,382.50
2018-04-18T08:47:01.239Z,388.13
2018-04-18T08:48:01.272Z,393.75
2018-04-18T08:49:01.311Z,399.38
2018-04-18T08:50:01.351Z,405.00
2018-04-18T08:51:01.392Z,410.63
2018-04-18T08:52:01.432Z,416.25
2018-04-18T08:53:01.471Z,416.25
2018-04-18T08:54:01.513Z,421.88
2018-04-18T08:55:01.555Z,421.88
2018-04-18T08:56:01.594Z,427.50
2018-04-18T08:57:01.635Z,427.50
2018-04-18T08:58:01.676Z,427.50
2018-04-18T08:59:01.717Z,427.50
2018-04-18T09:00:01.759Z,433.13
2018-04-18T09:01:01.800Z,427.50
2018-04-18T09:02:01.840Z,433.13
2018-04-18T09:03:01.882Z,438.75
2018-04-18T09:04:01.936Z,444.38
2018-04-18T09:05:01.964Z,444.38
2018-04-18T09:06:02.005Z,444.38
2018-04-18T09:07:02.046Z,444.38
2018-04-18T09:08:02.089Z,450.00
2018-04-18T09:09:02.130Z,444.38
2018-04-18T09:10:02.172Z,427.50
2018-04-18T09:11:02.218Z,433.13
2018-04-18T09:12:02.255Z,421.88
2018-04-18T09:13:02.300Z,421.88
2018-04-18T09:14:02.342Z,438.75
2018-04-18T09:15:02.382Z,450.00
2018-04-18T09:16:02.424Z,466.88
2018-04-18T09:17:02.467Z,466.88
2018-04-18T09:18:02.510Z,478.13
2018-04-18T09:19:02.550Z,472.50
2018-04-18T09:20:02.592Z,478.13
2018-04-18T09:21:02.635Z,466.88
2018-04-18T09:22:02.676Z,483.75
2018-04-18T09:23:02.718Z,495.00
2018-04-18T09:24:02.760Z,483.75
2018-04-18T09:25:02.803Z,483.75
2018-04-18T09:26:02.845Z,489.38
2018-04-18T09:27:02.886Z,495.00
2018-04-18T09:28:02.928Z,495.00
2018-04-18T09:29:02.971Z,500.63
2018-04-18T09:30:03.015Z,506.25
2018-04-18T09:31:03.056Z,511.88
2018-04-18T09:32:03.099Z,523.13
2018-04-18T09:33:03.141Z,568.13
2018-04-18T09:34:03.184Z,905.63
2018-04-18T09:35:03.227Z,1485.00
2018-04-18T09:36:03.271Z,1951.88
2018-04-18T09:37:03.313Z,2171.25
2018-04-18T09:38:03.357Z,2244.38
2018-04-18T09:39:03.400Z,2255.63
2018-04-18T09:40:03.449Z,2216.25
2018-04-18T09:41:03.491Z,2340.00
2018-04-18T09:42:03.539Z,2362.50
2018-04-18T09:43:03.580Z,2373.75
2018-04-18T09:44:03.628Z,2368.13
2018-04-18T09:45:03.676Z,2413.13
2018-04-18T09:46:03.723Z,2401.88
2018-04-18T09:47:03.769Z,2362.50
2018-04-18T09:48:03.816Z,2379.38
2018-04-18T09:49:03.865Z,2435.63
2018-04-18T09:50:03.914Z,2604.38
2018-04-18T09:51:03.963Z,2536.88
2018-04-18T09:52:04.012Z,2503.13
2018-04-18T09:53:04.060Z,2525.63
2018-04-18T09:54:04.111Z,2430.00
2018-04-18T09:55:04.161Z,2604.38
2018-04-18T09:56:04.212Z,2700.00
2018-04-18T09:57:04.265Z,2638.13
2018-04-18T09:58:04.314Z,2660.63
2018-04-18T09:59:04.360Z,2795.63
2018-04-18T10:00:04.411Z,2649.38
2018-04-18T10:01:04.461Z,2463.75
2018-04-18T10:02:04.514Z,2542.50
2018-04-18T10:03:04.563Z,2610.00
2018-04-18T10:04:04.615Z,2750.63
2018-04-18T10:05:04.668Z,2666.25
2018-04-18T10:06:04.719Z,2593.13
2018-04-18T10:07:04.770Z,2553.75
2018-04-18T10:08:04.822Z,2604.38
2018-04-18T10:09:04.873Z,2700.00
2018-04-18T10:10:04.928Z,2700.00
2018-04-18T10:11:04.978Z,2700.00
2018-04-18T10:12:05.031Z,2576.25
2018-04-18T10:13:05.083Z,2553.75
2018-04-18T10:14:05.136Z,2638.13
2018-04-18T10:15:05.188Z,2716.88
2018-04-18T10:16:05.243Z,2632.50
2018-04-18T10:17:05.294Z,2604.38
2018-04-18T10:18:05.348Z,2790.00
2018-04-18T10:19:05.400Z,2638.13
2018-04-18T10:20:05.452Z,2683.13
2018-04-18T10:21:05.507Z,2615.63
2018-04-18T10:22:05.559Z,2660.63
2018-04-18T10:23:05.621Z,2536.88
2018-04-18T10:24:05.666Z,2475.00
2018-04-18T10:25:05.723Z,2570.63
2018-04-18T10:26:05.772Z,2632.50
2018-04-18T10:27:05.825Z,2497.50
2018-04-18T10:28:05.890Z,2553.75
2018-04-18T10:29:05.936Z,2598.75
2018-04-18T10:30:05.987Z,2542.50
2018-04-18T10:31:06.041Z,2593.13
2018-04-18T10:32:06.095Z,2638.13
2018-04-18T10:33:06.148Z,2728.13
2018-04-18T10:34:06.203Z,2801.25
2018-04-18T10:35:06.255Z,2626.88
2018-04-18T10:36:06.309Z,2598.75
2018-04-18T10:37:06.364Z,2604.38
2018-04-18T10:38:06.451Z,2565.00
2018-04-18T10:39:06.472Z,2362.50
2018-04-18T10:40:06.527Z,2295.00
2018-04-18T10:41:06.582Z,2581.88
2018-04-18T10:42:06.637Z,2373.75
2018-04-18T10:43:06.692Z,2480.63
2018-04-18T10:44:06.746Z,2497.50
2018-04-18T10:45:06.804Z,2626.88
2018-04-18T10:46:06.857Z,2643.75
2018-04-18T10:47:06.909Z,2587.50
2018-04-18T10:48:06.967Z,2598.75
2018-04-18T10:49:07.020Z,2508.75
2018-04-18T10:50:07.077Z,2587.50
2018-04-18T10:51:07.131Z,2514.38
2018-04-18T10:52:07.184Z,2475.00
2018-04-18T10:53:07.241Z,2570.63
2018-04-18T10:54:07.296Z,2413.13
2018-04-18T10:55:07.350Z,2486.25
2018-04-18T10:56:07.406Z,2491.88
2018-04-18T10:57:07.460Z,2520.00
2018-04-18T10:58:07.523Z,2632.50
2018-04-18T10:59:07.577Z,2632.50
2018-04-18T11:00:07.625Z,2649.38
2018-04-18T11:01:07.680Z,2666.25
2018-04-18T11:02:07.736Z,2424.38
2018-04-18T11:03:07.789Z,2193.75
2018-04-18T11:04:07.845Z,2390.63
2018-04-18T11:05:07.900Z,2626.88
2018-04-18T11:06:07.956Z,2593.13
2018-04-18T11:07:08.018Z,2548.13
2018-04-18T11:08:08.063Z,2407.50
2018-04-18T11:09:08.120Z,2238.75
2018-04-18T11:10:08.175Z,2283.75
2018-04-18T11:11:08.228Z,1895.63
2018-04-18T11:12:08.283Z,1743.75
2018-04-18T11:13:08.338Z,1816.88
2018-04-18T11:14:08.392Z,2148.75
2018-04-18T11:15:08.445Z,2379.38
2018-04-18T11:16:08.505Z,2334.38
2018-04-18T11:17:08.553Z,2317.50
2018-04-18T11:18:08.606Z,2295.00
2018-04-18T11:19:08.660Z,2323.13
2018-04-18T11:20:08.714Z,2469.38
2018-04-18T11:21:08.767Z,2733.75
2018-04-18T11:22:08.820Z,2778.75
2018-04-18T11:23:08.874Z,2570.63
2018-04-18T11:24:08.928Z,2289.38
2018-04-18T11:25:08.981Z,2632.50
2018-04-18T11:26:09.035Z,2829.38
2018-04-18T11:27:09.089Z,2570.63
2018-04-18T11:28:09.144Z,2643.75
2018-04-18T11:29:09.199Z,2610.00
2018-04-18T11:30:09.252Z,2430.00
2018-04-18T11:31:09.309Z,2368.13
2018-04-18T11:32:09.364Z,2418.75
2018-04-18T11:33:09.416Z,2435.63
2018-04-18T11:34:09.471Z,2328.75
2018-04-18T11:35:09.523Z,2570.63
2018-04-18T11:36:09.577Z,2632.50
2018-04-18T11:37:09.632Z,2480.63
2018-04-18T11:38:09.686Z,2655.00
2018-04-18T11:39:09.741Z,2660.63
2018-04-18T11:40:09.795Z,2694.38
2018-04-18T11:41:09.849Z,2407.50
2018-04-18T11:42:09.903Z,2323.13
2018-04-18T11:43:09.956Z,2210.63
2018-04-18T11:44:10.010Z,2233.13
2018-04-18T11:45:10.066Z,2261.25
2018-04-18T11:46:10.120Z,2160.00
2018-04-18T11:47:10.172Z,2283.75
2018-04-18T11:48:10.227Z,2407.50
2018-04-18T11:49:10.280Z,2711.25
2018-04-18T11:50:10.336Z,2598.75
2018-04-18T11:51:10.447Z,2598.75
2018-04-18T11:52:10.442Z,2694.38
2018-04-18T11:53:10.501Z,2733.75
2018-04-18T11:54:10.550Z,2835.00
2018-04-18T11:55:10.605Z,2851.88
2018-04-18T11:56:10.664Z,2677.50
2018-04-18T11:57:10.712Z,2441.25
2018-04-18T11:58:10.768Z,2863.13
2018-04-18T11:59:10.820Z,2885.63
2018-04-18T12:00:10.875Z,2908.13
2018-04-18T12:01:10.931Z,2913.75
2018-04-18T12:02:11.021Z,2874.38
2018-04-18T12:03:11.040Z,2925.00
2018-04-18T12:04:11.107Z,2964.38
2018-04-18T12:05:11.149Z,3031.88
2018-04-18T12:06:11.204Z,3060.00
2018-04-18T12:07:11.258Z,2998.13
2018-04-18T12:08:11.315Z,3088.13
2018-04-18T12:09:11.369Z,3043.13
2018-04-18T12:10:11.426Z,2857.50
2018-04-18T12:11:11.682Z,2880.00
2018-04-18T12:12:11.539Z,2784.38
2018-04-18T12:13:11.595Z,2598.75
2018-04-18T12:14:11.650Z,2795.63
2018-04-18T12:15:11.702Z,2953.13
2018-04-18T12:16:11.758Z,2930.63
2018-04-18T12:17:11.816Z,2626.88
2018-04-18T12:18:11.870Z,2846.25
2018-04-18T12:19:11.931Z,2812.50
2018-04-18T12:20:11.980Z,2745.00
2018-04-18T12:21:12.037Z,2728.13
2018-04-18T12:22:12.092Z,2716.88
2018-04-18T12:23:12.151Z,2677.50
2018-04-18T12:24:12.207Z,2508.75
2018-04-18T12:25:12.260Z,2694.38
2018-04-18T12:26:12.319Z,2587.50
2018-04-18T12:27:12.371Z,2565.00
2018-04-18T12:28:12.429Z,2604.38
2018-04-18T12:29:12.488Z,2520.00
2018-04-18T12:30:12.540Z,2559.38
2018-04-18T12:31:12.596Z,2525.63
2018-04-18T12:32:12.656Z,2536.88
2018-04-18T12:33:12.710Z,2548.13
2018-04-18T12:34:12.765Z,2531.25
2018-04-18T12:35:12.822Z,2559.38
2018-04-18T12:36:12.876Z,2671.88
2018-04-18T12:37:12.933Z,2790.00
2018-04-18T12:38:12.989Z,2863.13
2018-04-18T12:39:13.045Z,2660.63
2018-04-18T12:40:13.101Z,2446.88
2018-04-18T12:41:13.158Z,2396.25
2018-04-18T12:42:13.214Z,2486.25